createdAt,value
2017-09-25T00:00:45.117Z,98831.16
2017-09-25T00:03:13.464Z,98825.70
2017-09-25T00:05:41.800Z,98823.67
2017-09-25T00:08:10.161Z,98829.20
2017-09-25T00:10:39.267Z,98823.71
2017-09-25T00:13:08.371Z,98830.10
2017-09-25T00:15:36.706Z,98830.41
2017-09-25T00:18:05.028Z,98826.88
2017-09-25T00:20:33.355Z,98822.87
2017-09-25T00:23:01.684Z,98825.10
2017-09-25T00:25:30.019Z,98823.39
2017-09-25T00:27:58.341Z,98828.05
2017-09-25T00:30:27.452Z,98824.61
2017-09-25T00:32:55.782Z,98828.13
2017-09-25T00:35:24.091Z,98822.50
2017-09-25T00:37:53.191Z,98822.11
2017-09-25T00:40:21.499Z,98820.05
2017-09-25T00:42:49.829Z,98815.72
2017-09-25T00:45:18.260Z,98813.03
2017-09-25T00:47:46.582Z,98819.14
2017-09-25T00:50:14.931Z,98818.30
2017-09-25T00:53:01.167Z,98816.72
2017-09-25T00:58:33.125Z,98816.11
2017-09-25T01:01:12.682Z,98814.45
2017-09-25T01:03:53.614Z,98812.73
2017-09-25T01:06:26.639Z,98809.12
2017-09-25T01:08:54.984Z,98814.22
2017-09-25T01:11:23.738Z,98811.59
2017-09-25T01:13:52.812Z,98816.47
2017-09-25T01:16:21.150Z,98820.81
2017-09-25T01:18:49.457Z,98815.33
2017-09-25T01:21:18.171Z,98813.11
2017-09-25T01:23:47.271Z,98810.04
2017-09-25T01:26:16.793Z,98806.64
2017-09-25T01:28:45.887Z,98810.98
2017-09-25T01:31:15.025Z,98808.69
2017-09-25T01:33:43.627Z,98805.02
2017-09-25T01:36:12.054Z,98800.45
2017-09-25T01:38:40.382Z,98802.38
2017-09-25T01:41:08.744Z,98805.31
2017-09-25T01:43:37.964Z,98801.96
2017-09-25T01:46:06.322Z,98803.31
2017-09-25T01:48:35.967Z,98799.47
2017-09-25T01:51:05.230Z,98798.21
2017-09-25T01:53:33.601Z,98798.36
2017-09-25T01:56:01.924Z,98798.87
2017-09-25T01:58:30.684Z,98799.19
2017-09-25T02:00:59.014Z,98800.85
2017-09-25T02:03:28.112Z,98796.77
2017-09-25T02:05:59.192Z,98803.05
2017-09-25T02:08:27.547Z,98799.77
2017-09-25T02:10:56.950Z,98798.54
2017-09-25T02:13:25.269Z,98794.00
2017-09-25T02:15:53.593Z,98790.25
2017-09-25T02:18:22.695Z,98790.86
2017-09-25T02:20:51.071Z,98792.94
2017-09-25T02:23:19.402Z,98789.99
2017-09-25T02:25:47.729Z,98791.67
2017-09-25T02:28:17.363Z,98787.00
2017-09-25T02:30:45.743Z,98783.45
2017-09-25T02:33:14.065Z,98781.66
2017-09-25T02:35:42.886Z,98784.70
2017-09-25T02:38:11.217Z,98789.05
2017-09-25T02:40:39.533Z,98786.59
2017-09-25T02:43:08.740Z,98788.95
2017-09-25T02:45:37.070Z,98783.14
2017-09-25T02:48:05.709Z,98783.55
2017-09-25T02:50:34.025Z,98776.42
2017-09-25T02:53:02.374Z,98773.75
2017-09-25T02:55:31.486Z,98769.33
2017-09-25T02:57:59.802Z,98774.37
2017-09-25T03:00:28.238Z,98763.70
2017-09-25T03:02:56.550Z,98770.80
2017-09-25T03:05:24.879Z,98769.77
2017-09-25T03:07:53.974Z,98762.28
2017-09-25T03:10:22.321Z,98763.06
2017-09-25T03:12:50.692Z,98760.81
2017-09-25T03:15:19.011Z,98760.03
2017-09-25T03:17:47.343Z,98757.06
2017-09-25T03:20:15.688Z,98758.70
2017-09-25T03:22:44.021Z,98763.57
2017-09-25T03:25:12.345Z,98760.91
2017-09-25T03:27:41.520Z,98760.94
2017-09-25T03:30:10.223Z,98758.57
2017-09-25T03:32:39.322Z,98757.75
2017-09-25T03:35:07.664Z,98755.66
2017-09-25T03:37:35.978Z,98757.85
2017-09-25T03:40:05.078Z,98755.97
2017-09-25T03:42:33.425Z,98753.17
2017-09-25T03:45:01.751Z,98754.03
2017-09-25T03:47:30.096Z,98751.44
2017-09-25T03:49:58.504Z,98749.62
2017-09-25T03:52:26.895Z,98755.08
2017-09-25T03:54:55.218Z,98751.09
2017-09-25T03:57:23.542Z,98748.72
2017-09-25T03:59:51.866Z,98746.38
2017-09-25T04:02:20.192Z,98741.67
2017-09-25T04:04:48.536Z,98741.45
2017-09-25T04:07:16.892Z,98746.19
2017-09-25T04:09:45.643Z,98737.07
2017-09-25T04:12:13.985Z,98737.79
2017-09-25T04:14:42.303Z,98732.34
2017-09-25T04:17:10.631Z,98737.35
2017-09-25T04:19:38.950Z,98737.17
2017-09-25T04:22:07.285Z,98737.45
2017-09-25T04:24:35.594Z,98733.59
2017-09-25T04:27:05.212Z,98734.24
2017-09-25T04:29:34.305Z,98739.73
2017-09-25T04:32:02.633Z,98731.56
2017-09-25T04:34:30.973Z,98736.36
2017-09-25T04:36:59.322Z,98737.21
2017-09-25T04:39:27.664Z,98737.86
2017-09-25T04:41:55.986Z,98737.63
2017-09-25T04:44:24.347Z,98730.63
2017-09-25T04:46:52.667Z,98734.15
2017-09-25T04:49:21.212Z,98736.20
2017-09-25T04:51:49.565Z,98740.47
2017-09-25T04:54:17.889Z,98736.63
2017-09-25T04:56:46.233Z,98739.60
2017-09-25T04:59:15.590Z,98741.55
2017-09-25T05:01:44.692Z,98746.05
2017-09-25T05:04:13.081Z,98744.31
2017-09-25T05:06:41.430Z,98746.36
2017-09-25T05:09:09.771Z,98745.28
2017-09-25T05:11:38.146Z,98746.15
2017-09-25T05:14:06.489Z,98742.83
2017-09-25T05:16:35.579Z,98748.88
2017-09-25T05:19:03.929Z,98743.69
2017-09-25T05:21:32.297Z,98746.11
2017-09-25T05:24:00.635Z,98746.69
2017-09-25T05:26:28.982Z,98739.69
2017-09-25T05:28:57.305Z,98742.80
2017-09-25T05:31:25.636Z,98739.47
2017-09-25T05:33:53.966Z,98738.59
2017-09-25T05:36:22.379Z,98743.22
2017-09-25T05:38:50.729Z,98745.31
2017-09-25T05:41:19.057Z,98744.63
2017-09-25T05:43:47.417Z,98746.64
2017-09-25T05:46:15.754Z,98749.30
2017-09-25T05:48:44.108Z,98744.08
2017-09-25T05:51:13.201Z,98747.11
2017-09-25T05:53:41.869Z,98745.81
2017-09-25T05:56:10.214Z,98747.52
2017-09-25T05:58:38.529Z,98748.91
2017-09-25T06:01:06.877Z,98743.97
2017-09-25T06:03:35.191Z,98741.67
2017-09-25T06:06:03.541Z,98738.52
2017-09-25T06:08:32.376Z,98735.91
2017-09-25T06:11:01.759Z,98744.73
2017-09-25T06:13:30.107Z,98742.59
2017-09-25T06:15:58.437Z,98741.20
2017-09-25T06:18:27.559Z,98743.19
2017-09-25T06:20:55.885Z,98752.91
2017-09-25T06:23:24.232Z,98747.17
2017-09-25T06:25:52.591Z,98746.21
2017-09-25T06:28:20.995Z,98747.50
2017-09-25T06:30:49.320Z,98748.81
2017-09-25T06:33:18.468Z,98753.11
2017-09-25T06:35:46.821Z,98751.23
2017-09-25T06:38:15.154Z,98748.93
2017-09-25T06:40:43.502Z,98746.09
2017-09-25T06:43:11.838Z,98746.50
2017-09-25T06:45:40.192Z,98740.12
2017-09-25T06:48:08.512Z,98743.85
2017-09-25T06:50:36.858Z,98746.90
2017-09-25T06:53:05.234Z,98749.17
2017-09-25T06:55:34.369Z,98747.23
2017-09-25T06:58:03.492Z,98746.89
2017-09-25T07:00:31.818Z,98751.50
2017-09-25T07:03:00.165Z,98751.72
2017-09-25T07:05:28.522Z,98749.23
2017-09-25T07:07:56.933Z,98751.02
2017-09-25T07:10:26.216Z,98751.48
2017-09-25T07:12:54.557Z,98757.25
2017-09-25T07:15:23.962Z,98753.39
2017-09-25T07:17:52.307Z,98762.33
2017-09-25T07:20:20.661Z,98754.27
2017-09-25T07:22:48.996Z,98756.58
2017-09-25T07:25:18.096Z,98746.15
2017-09-25T07:27:46.467Z,98747.50
2017-09-25T07:30:14.812Z,98744.48
2017-09-25T07:32:43.163Z,98746.97
2017-09-25T07:35:11.498Z,98741.90
2017-09-25T07:37:39.943Z,98747.79
2017-09-25T07:40:08.300Z,98743.97
2017-09-25T07:42:36.652Z,98738.67
2017-09-25T07:45:05.760Z,98744.42
2017-09-25T07:47:34.092Z,98737.89
2017-09-25T07:50:02.451Z,98739.17
2017-09-25T07:52:30.813Z,98734.80
2017-09-25T07:54:59.547Z,98739.84
2017-09-25T07:57:27.889Z,98737.31
2017-09-25T07:59:56.299Z,98735.85
2017-09-25T08:02:24.662Z,98730.40
2017-09-25T08:04:52.991Z,98738.03
2017-09-25T08:07:22.120Z,98728.23
2017-09-25T08:09:50.462Z,98736.64
2017-09-25T08:12:19.163Z,98729.72
2017-09-25T08:14:48.269Z,98732.62
2017-09-25T08:17:18.867Z,98733.16
2017-09-25T08:19:47.287Z,98735.50
2017-09-25T08:22:20.116Z,98732.55
2017-09-25T08:24:48.791Z,98743.08
2017-09-25T08:27:17.157Z,98740.81
2017-09-25T08:29:45.476Z,98744.42
2017-09-25T08:32:13.822Z,98750.12
2017-09-25T08:34:42.166Z,98754.42
2017-09-25T08:37:11.270Z,98741.91
2017-09-25T08:39:39.617Z,98745.47
2017-09-25T08:42:07.966Z,98735.85
2017-09-25T08:44:36.314Z,98737.52
2017-09-25T08:47:04.647Z,98738.27
2017-09-25T08:49:33.149Z,98739.65
2017-09-25T08:52:01.473Z,98735.98
2017-09-25T08:54:29.816Z,98738.14
2017-09-25T08:56:58.903Z,98733.27
2017-09-25T08:59:28.444Z,98731.39
2017-09-25T09:01:56.797Z,98734.17
2017-09-25T09:04:25.910Z,98735.83
2017-09-25T09:06:54.258Z,98734.38
2017-09-25T09:09:22.582Z,98735.73
2017-09-25T09:11:50.940Z,98728.84
2017-09-25T09:14:20.049Z,98728.29
2017-09-25T09:16:48.395Z,98732.17
2017-09-25T09:19:16.723Z,98727.13
2017-09-25T09:21:45.070Z,98729.23
2017-09-25T09:24:14.199Z,98723.49
2017-09-25T09:26:42.531Z,98724.25
2017-09-25T09:29:10.884Z,98729.56
2017-09-25T09:31:39.220Z,98726.30
2017-09-25T09:34:07.603Z,98725.71
2017-09-25T09:36:35.966Z,98720.95
2017-09-25T09:39:05.074Z,98722.67
2017-09-25T09:41:33.421Z,98720.56
2017-09-25T09:44:01.759Z,98719.85
2017-09-25T09:46:30.220Z,98715.81
2017-09-25T09:48:58.552Z,98719.19
2017-09-25T09:51:26.935Z,98714.88
2017-09-25T09:53:55.299Z,98711.86
2017-09-25T09:56:23.642Z,98711.27
2017-09-25T09:58:52.001Z,98720.67
2017-09-25T10:01:21.144Z,98716.52
2017-09-25T10:03:49.482Z,98715.13
2017-09-25T10:06:17.846Z,98706.84
2017-09-25T10:08:46.167Z,98708.98
2017-09-25T10:11:14.519Z,98706.51
2017-09-25T10:13:43.624Z,98707.73
2017-09-25T10:16:12.296Z,98702.05
2017-09-25T10:18:41.227Z,98706.01
2017-09-25T10:21:09.561Z,98701.86
2017-09-25T10:23:38.687Z,98697.45
2017-09-25T10:26:07.016Z,98697.66
2017-09-25T10:28:35.370Z,98691.61
2017-09-25T10:31:03.715Z,98690.70
2017-09-25T10:33:32.500Z,98692.45
2017-09-25T10:36:01.604Z,98688.24
2017-09-25T10:38:29.989Z,98694.84
2017-09-25T10:40:58.326Z,98690.52
2017-09-25T10:43:26.658Z,98691.13
2017-09-25T10:45:54.999Z,98687.41
2017-09-25T10:48:23.352Z,98685.69
2017-09-25T10:50:51.712Z,98678.42
2017-09-25T10:53:20.057Z,98684.92
2017-09-25T10:55:49.156Z,98671.25
2017-09-25T10:58:17.495Z,98668.08
2017-09-25T11:00:45.811Z,98665.36
2017-09-25T11:03:15.219Z,98666.27
2017-09-25T11:05:43.564Z,98669.94
2017-09-25T11:08:11.896Z,98662.95
2017-09-25T11:10:41.186Z,98662.05
2017-09-25T11:13:09.513Z,98656.58
2017-09-25T11:15:37.891Z,98656.75
2017-09-25T11:18:06.208Z,98655.83
2017-09-25T11:20:34.554Z,98646.91
2017-09-25T11:23:02.905Z,98646.80
2017-09-25T11:25:31.217Z,98645.79
2017-09-25T11:27:59.563Z,98636.02
2017-09-25T11:30:27.889Z,98640.19
2017-09-25T11:32:57.302Z,98634.20
2017-09-25T11:35:25.624Z,98630.86
2017-09-25T11:37:53.943Z,98631.04
2017-09-25T11:40:22.305Z,98632.98
2017-09-25T11:42:50.676Z,98622.41
2017-09-25T11:45:19.058Z,98626.66
2017-09-25T11:47:47.396Z,98617.61
2017-09-25T11:50:16.275Z,98622.66
2017-09-25T11:52:44.612Z,98616.95
2017-09-25T11:55:12.928Z,98626.37
2017-09-25T11:57:42.808Z,98616.25
2017-09-25T12:00:11.154Z,98614.92
2017-09-25T12:02:39.500Z,98618.44
2017-09-25T12:05:07.826Z,98607.33
2017-09-25T12:07:36.169Z,98611.53
2017-09-25T12:10:04.500Z,98615.30
2017-09-25T12:12:32.872Z,98613.02
2017-09-25T12:15:01.216Z,98610.55
2017-09-25T12:17:29.541Z,98611.30
2017-09-25T12:19:57.886Z,98610.33
2017-09-25T12:22:26.238Z,98610.94
2017-09-25T12:24:55.358Z,98615.80
2017-09-25T12:27:23.696Z,98607.20
2017-09-25T12:29:52.052Z,98603.80
2017-09-25T12:32:20.510Z,98602.72
2017-09-25T12:34:48.848Z,98599.33
2017-09-25T12:37:17.950Z,98603.60
2017-09-25T12:39:46.306Z,98605.50
2017-09-25T12:42:14.692Z,98602.35
2017-09-25T12:44:43.045Z,98601.67
2017-09-25T12:47:11.387Z,98598.52
2017-09-25T12:49:39.724Z,98601.84
2017-09-25T12:52:08.055Z,98600.39
2017-09-25T12:54:36.812Z,98600.13
2017-09-25T12:57:05.900Z,98596.23
2017-09-25T12:59:34.267Z,98603.45
2017-09-25T13:02:02.597Z,98596.59
2017-09-25T13:04:30.947Z,98597.45
2017-09-25T13:07:00.048Z,98591.67
2017-09-25T13:09:28.381Z,98595.41
2017-09-25T13:11:56.740Z,98594.52
2017-09-25T13:14:25.061Z,98595.00
2017-09-25T13:16:55.710Z,98596.95
2017-09-25T13:19:24.037Z,98590.98
2017-09-25T13:21:52.365Z,98594.23
2017-09-25T13:24:21.473Z,98584.88
2017-09-25T13:26:50.551Z,98587.18
2017-09-25T13:29:18.894Z,98579.36
2017-09-25T13:31:47.206Z,98586.81
2017-09-25T13:34:15.893Z,98579.28
2017-09-25T13:36:46.757Z,98580.81
2017-09-25T13:39:15.274Z,98576.34
2017-09-25T13:41:43.675Z,98580.53
2017-09-25T13:44:12.031Z,98575.23
2017-09-25T13:46:40.397Z,98579.61
2017-09-25T13:49:09.238Z,98581.75
2017-09-25T13:51:37.949Z,98583.22
2017-09-25T13:54:07.225Z,98588.84
2017-09-25T13:56:35.617Z,98576.03
2017-09-25T14:04:12.075Z,98577.98
2017-09-25T14:06:40.407Z,98582.31
2017-09-25T14:09:09.565Z,98578.80
2017-09-25T14:11:37.886Z,98577.93
2017-09-25T14:14:06.995Z,98578.13
2017-09-25T14:16:36.087Z,98574.40
2017-09-25T14:19:05.493Z,98571.07
2017-09-25T14:21:33.815Z,98570.20
2017-09-25T14:24:02.154Z,98562.84
2017-09-25T14:26:31.253Z,98572.09
2017-09-25T14:28:59.596Z,98566.71
2017-09-25T14:31:27.935Z,98566.85
2017-09-25T14:33:56.265Z,98566.44
2017-09-25T14:36:24.715Z,98569.85
2017-09-25T14:38:58.719Z,98571.83
2017-09-25T14:41:27.363Z,98568.48
2017-09-25T14:43:55.705Z,98568.47
2017-09-25T14:46:24.063Z,98563.44
2017-09-25T14:48:52.576Z,98567.75
2017-09-25T14:51:21.001Z,98558.87
2017-09-25T14:53:49.375Z,98566.16
2017-09-25T14:56:17.714Z,98561.07
2017-09-25T14:58:47.523Z,98569.84
2017-09-25T15:01:16.006Z,98564.81
2017-09-25T15:03:44.405Z,98564.94
2017-09-25T15:06:12.749Z,98568.01
2017-09-25T15:08:41.078Z,98567.14
2017-09-25T15:11:09.428Z,98571.41
2017-09-25T15:13:37.837Z,98574.80
2017-09-25T15:16:06.156Z,98572.08
2017-09-25T15:18:34.526Z,98569.36
2017-09-25T15:21:02.856Z,98574.70
2017-09-25T15:23:31.208Z,98566.61
2017-09-25T15:25:59.973Z,98572.12
2017-09-25T15:28:28.319Z,98576.25
2017-09-25T15:30:57.493Z,98570.95
2017-09-25T15:33:25.841Z,98576.44
2017-09-25T15:35:54.214Z,98583.16
2017-09-25T15:38:22.543Z,98584.98
2017-09-25T15:40:51.167Z,98588.56
2017-09-25T15:43:19.506Z,98589.81
2017-09-25T15:45:47.905Z,98577.66
2017-09-25T15:48:17.012Z,98578.96
2017-09-25T15:50:45.343Z,98582.98
2017-09-25T15:53:13.701Z,98577.86
2017-09-25T15:55:42.067Z,98577.09
2017-09-25T15:58:10.449Z,98582.56
2017-09-25T16:00:38.871Z,98584.63
2017-09-25T16:03:07.223Z,98599.91
2017-09-25T16:05:35.578Z,98589.86
2017-09-25T16:08:05.300Z,98596.07
2017-09-25T16:10:34.882Z,98593.58
2017-09-25T16:13:03.980Z,98593.28
2017-09-25T16:15:32.309Z,98601.47
2017-09-25T16:18:00.678Z,98602.08
2017-09-25T16:20:29.003Z,98597.17
2017-09-25T16:22:58.128Z,98602.02
2017-09-25T16:25:26.531Z,98600.08
2017-09-25T16:27:55.258Z,98602.56
2017-09-25T16:30:23.998Z,98610.92
2017-09-25T16:32:53.136Z,98603.96
2017-09-25T16:35:21.659Z,98605.80
2017-09-25T16:37:50.059Z,98611.52
2017-09-25T16:40:18.818Z,98608.09
2017-09-25T16:42:47.145Z,98608.52
2017-09-25T16:45:15.460Z,98611.84
2017-09-25T16:47:43.811Z,98611.31
2017-09-25T16:50:12.132Z,98616.47
2017-09-25T16:52:41.277Z,98607.72
2017-09-25T16:55:09.597Z,98617.15
2017-09-25T16:57:39.011Z,98617.62
2017-09-25T17:00:08.119Z,98625.61
2017-09-25T17:02:43.604Z,98624.00
2017-09-25T17:05:12.383Z,98625.78
2017-09-25T17:07:40.749Z,98627.94
2017-09-25T17:10:17.608Z,98630.36
2017-09-25T17:12:47.481Z,98630.89
2017-09-25T17:15:16.110Z,98634.59
2017-09-25T17:17:45.316Z,98634.66
2017-09-25T17:20:14.429Z,98638.16
2017-09-25T17:22:42.783Z,98645.12
2017-09-25T17:25:11.946Z,98643.81
2017-09-25T17:27:40.275Z,98650.57
2017-09-25T17:30:08.607Z,98654.88
2017-09-25T17:32:37.234Z,98655.39
2017-09-25T17:35:06.417Z,98660.78
2017-09-25T17:37:35.552Z,98657.53
2017-09-25T17:40:03.913Z,98661.13
2017-09-25T17:42:32.254Z,98662.58
2017-09-25T17:45:00.639Z,98669.68
2017-09-25T17:47:29.032Z,98667.77
2017-09-25T17:49:58.166Z,98665.94
2017-09-25T17:52:26.515Z,98668.59
2017-09-25T17:54:55.621Z,98667.16
2017-09-25T17:57:24.768Z,98672.77
2017-09-25T17:59:53.130Z,98670.84
2017-09-25T18:02:21.498Z,98670.86
2017-09-25T18:04:50.378Z,98673.98
2017-09-25T18:07:19.035Z,98670.34
2017-09-25T18:09:47.375Z,98674.91
2017-09-25T18:12:15.777Z,98673.31
2017-09-25T18:14:44.194Z,98677.87
2017-09-25T18:17:12.584Z,98681.92
2017-09-25T18:19:41.098Z,98684.37
2017-09-25T18:22:09.510Z,98688.38
2017-09-25T18:24:38.189Z,98687.47
2017-09-25T18:27:06.549Z,98692.83
2017-09-25T18:29:34.883Z,98694.66
2017-09-25T18:32:04.034Z,98700.42
2017-09-25T18:34:32.364Z,98710.23
2017-09-25T18:37:01.508Z,98708.18
2017-09-25T18:39:30.904Z,98713.45
2017-09-25T18:41:59.521Z,98708.49
2017-09-25T18:44:27.859Z,98704.13
2017-09-25T18:46:56.236Z,98702.06
2017-09-25T18:49:24.614Z,98699.16
2017-09-25T18:51:52.947Z,98708.38
2017-09-25T18:54:21.314Z,98706.82
2017-09-25T18:56:50.174Z,98712.48
2017-09-25T18:59:18.805Z,98714.13
2017-09-25T19:01:47.151Z,98715.64
2017-09-25T19:04:15.520Z,98719.07
2017-09-25T19:06:43.893Z,98712.38
2017-09-25T19:09:12.242Z,98712.66
2017-09-25T19:11:41.383Z,98715.41
2017-09-25T19:14:09.725Z,98710.65
2017-09-25T19:16:38.864Z,98719.13
2017-09-25T19:19:07.266Z,98713.70
2017-09-25T19:21:35.616Z,98715.61
2017-09-25T19:24:04.010Z,98714.13
2017-09-25T19:26:32.420Z,98715.73
2017-09-25T19:29:01.103Z,98717.51
2017-09-25T19:31:30.133Z,98716.72
2017-09-25T19:33:59.958Z,98716.03
2017-09-25T19:36:29.987Z,98716.66
2017-09-25T19:39:04.745Z,98716.44
2017-09-25T19:41:40.390Z,98713.11
2017-09-25T19:44:13.382Z,98719.27
2017-09-25T19:46:42.224Z,98719.61
2017-09-25T19:49:10.609Z,98729.79
2017-09-25T19:51:38.955Z,98732.96
2017-09-25T19:54:13.880Z,98720.84
2017-09-25T19:56:57.895Z,98718.91
2017-09-25T19:59:26.271Z,98722.17
2017-09-25T20:01:54.627Z,98723.58
2017-09-25T20:04:22.976Z,98724.86
2017-09-25T20:06:52.116Z,98726.92
2017-09-25T20:09:20.463Z,98725.20
2017-09-25T20:11:49.682Z,98723.55
2017-09-25T20:17:34.060Z,98732.16
2017-09-25T20:20:03.216Z,98729.50
2017-09-25T20:22:36.679Z,98734.58
2017-09-25T20:25:05.398Z,98732.69
2017-09-25T20:27:34.918Z,98728.71
2017-09-25T20:30:07.883Z,98721.82
2017-09-25T20:32:37.461Z,98721.53
2017-09-25T20:35:08.374Z,98725.27
2017-09-25T20:37:38.577Z,98722.72
2017-09-25T20:40:07.977Z,98720.22
2017-09-25T20:42:46.251Z,98719.43
2017-09-25T20:45:22.767Z,98716.95
2017-09-25T20:48:03.096Z,98717.00
2017-09-25T20:50:37.724Z,98720.09
2017-09-25T20:53:11.103Z,98719.53
2017-09-25T20:55:43.528Z,98722.34
2017-09-25T20:58:16.373Z,98717.25
2017-09-25T21:00:49.730Z,98722.23
2017-09-25T21:03:23.041Z,98725.40
2017-09-25T21:05:56.727Z,98721.46
2017-09-25T21:08:30.005Z,98727.17
2017-09-25T21:10:59.251Z,98730.67
2017-09-25T21:13:28.507Z,98726.53
2017-09-25T21:15:57.586Z,98732.06
2017-09-25T21:18:25.924Z,98733.22
2017-09-25T21:20:54.340Z,98736.05
2017-09-25T21:23:22.689Z,98735.61
2017-09-25T21:25:51.015Z,98740.48
2017-09-25T21:28:19.356Z,98739.37
2017-09-25T21:30:47.967Z,98733.92
2017-09-25T21:33:16.314Z,98737.62
2017-09-25T21:35:44.650Z,98733.19
2017-09-25T21:38:13.739Z,98728.48
2017-09-25T21:40:43.110Z,98727.90
2017-09-25T21:43:11.436Z,98725.12
2017-09-25T21:45:40.556Z,98726.30
2017-09-25T21:48:08.898Z,98722.98
2017-09-25T21:50:38.008Z,98725.44
2017-09-25T21:53:07.111Z,98719.38
2017-09-25T21:55:38.126Z,98727.91
2017-09-25T21:58:15.531Z,98724.46
2017-09-25T22:00:44.852Z,98725.08
2017-09-25T22:03:13.207Z,98726.67
2017-09-25T22:05:42.355Z,98719.75
2017-09-25T22:08:11.575Z,98719.25
2017-09-25T22:10:39.912Z,98722.95
2017-09-25T22:13:08.250Z,98724.38
2017-09-25T22:15:36.664Z,98724.47
2017-09-25T22:18:05.987Z,98716.56
2017-09-25T22:20:34.351Z,98721.16
2017-09-25T22:23:02.688Z,98723.56
2017-09-25T22:25:31.081Z,98730.49
2017-09-25T22:27:59.487Z,98730.13
2017-09-25T22:30:27.817Z,98729.67
2017-09-25T22:32:56.151Z,98732.38
2017-09-25T22:35:24.474Z,98728.36
2017-09-25T22:37:52.829Z,98730.61
2017-09-25T22:40:21.169Z,98727.41
2017-09-25T22:42:49.508Z,98730.04
2017-09-25T22:45:17.860Z,98735.56
2017-09-25T22:47:46.208Z,98733.16
2017-09-25T22:50:15.342Z,98731.34
2017-09-25T22:52:43.665Z,98739.62
2017-09-25T22:55:12.006Z,98735.28
2017-09-25T22:57:40.353Z,98738.16
2017-09-25T23:00:08.672Z,98739.62
2017-09-25T23:02:37.028Z,98733.33
2017-09-25T23:08:20.230Z,98733.28
2017-09-25T23:10:48.569Z,98731.89
2017-09-25T23:13:17.684Z,98733.73
2017-09-25T23:15:46.034Z,98734.23
2017-09-25T23:18:14.380Z,98734.92
2017-09-25T23:20:43.469Z,98736.52
2017-09-25T23:23:11.803Z,98728.45
2017-09-25T23:25:40.154Z,98725.86
2017-09-25T23:28:08.475Z,98717.70
2017-09-25T23:30:55.492Z,98718.19
2017-09-25T23:33:23.827Z,98721.48
2017-09-25T23:35:52.266Z,98722.13
2017-09-25T23:38:20.784Z,98726.69
2017-09-25T23:40:49.867Z,98727.17
2017-09-25T23:43:18.209Z,98732.58
2017-09-25T23:45:46.532Z,98727.95
2017-09-25T23:48:15.645Z,98735.66
2017-09-25T23:50:43.991Z,98733.56
2017-09-25T23:53:12.332Z,98735.20
2017-09-25T23:55:40.667Z,98738.08
2017-09-25T23:58:09.769Z,98734.47
